Time;durP1;ratioP1;P1;durP2;ratioP2;P2;SDS_P1;SDS_P2;PMS_P1;PMS_P2;Temp;Humidity;BMP_temperature;BMP_pressure;BME280_temperature;BME280_humidity;BME280_pressure;Samples;Min_cycle;Max_cycle;Signal;HPM_P1;HPM_P2
2022/12/28 00:01:17;;;;;;;13.80;6.30;;;;;;;3.76;81.67;100760.36;99917;1291;137189;-68
2022/12/28 00:03:44;;;;;;;13.30;6.40;;;;;;;3.75;81.71;100752.45;99967;1288;107979;-70
2022/12/28 00:06:11;;;;;;;14.70;7.00;;;;;;;3.74;81.78;100758.29;99826;1290;137370;-68
2022/12/28 00:08:39;;;;;;;13.40;6.50;;;;;;;3.72;81.56;100755.20;99950;1290;109053;-68
2022/12/28 00:11:08;;;;;;;18.60;6.50;;;;;;;3.70;81.55;100754.68;99482;1290;1003093;-68
2022/12/28 00:13:50;;;;;;;15.20;5.80;;;;;;;3.71;81.66;100754.85;100169;1291;137956;-68
2022/12/28 00:16:24;;;;;;;16.40;6.30;;;;;;;3.72;81.31;100755.36;99871;1285;106974;-68
2022/12/28 00:18:52;;;;;;;12.80;5.60;;;;;;;3.76;81.44;100749.02;99974;1287;139097;-67
2022/12/28 00:21:19;;;;;;;19.10;6.70;;;;;;;3.79;81.44;100749.40;99921;1287;109121;-68
2022/12/28 00:23:48;;;;;;;13.40;6.00;;;;;;;3.80;81.30;100751.80;99801;1290;137906;-68
2022/12/28 00:26:15;;;;;;;14.50;6.10;;;;;;;3.80;81.47;100757.31;100103;1291;96553;-68
2022/12/28 00:28:42;;;;;;;18.90;6.40;;;;;;;3.78;81.28;100754.73;100234;1287;107377;-70
2022/12/28 00:31:09;;;;;;;14.00;5.90;;;;;;;3.75;81.33;100757.96;99852;1291;137701;-69
2022/12/28 00:33:37;;;;;;;14.20;7.20;;;;;;;3.71;81.41;100758.98;99960;1290;109599;-68
2022/12/28 00:36:05;;;;;;;14.70;6.80;;;;;;;3.67;81.18;100757.95;99793;1283;138726;-69
2022/12/28 00:38:34;;;;;;;15.60;6.50;;;;;;;3.63;81.40;100762.58;100012;1291;96604;-68
2022/12/28 00:41:01;;;;;;;11.30;5.70;;;;;;;3.61;81.43;100761.88;99893;1282;106731;-69
2022/12/28 00:43:29;;;;;;;13.60;5.80;;;;;;;3.58;81.43;100762.89;99824;1291;139025;-69
2022/12/28 00:45:57;;;;;;;12.90;6.00;;;;;;;3.58;81.50;100762.88;100119;1284;110529;-70
2022/12/28 00:48:25;;;;;;;9.60;5.40;;;;;;;3.59;81.53;100764.62;99848;1291;137846;-68
2022/12/28 00:50:52;;;;;;;15.30;5.90;;;;;;;3.60;81.67;100773.23;100108;1283;96741;-69
2022/12/28 00:53:19;;;;;;;12.70;5.90;;;;;;;3.60;81.63;100773.21;100200;1292;106920;-68
2022/12/28 00:55:47;;;;;;;14.40;5.80;;;;;;;3.57;81.34;100770.27;100012;1291;137492;-68
2022/12/28 00:58:14;;;;;;;15.80;6.50;;;;;;;3.54;81.39;100772.14;100020;1291;109242;-68
2022/12/28 01:00:41;;;;;;;13.40;6.30;;;;;;;3.51;81.23;100769.21;100169;1291;137357;-68
2022/12/28 01:03:08;;;;;;;13.90;6.10;;;;;;;3.46;81.54;100774.88;101000;1292;94209;-69
2022/12/28 01:05:38;;;;;;;12.10;5.70;;;;;;;3.42;81.59;100775.72;99897;1291;107888;-68
2022/12/28 01:08:07;;;;;;;13.40;5.40;;;;;;;3.42;81.44;100774.17;100107;1283;96607;-69
2022/12/28 01:10:34;;;;;;;13.40;5.30;;;;;;;3.42;81.48;100771.41;99983;1291;109574;-69
2022/12/28 01:13:01;;;;;;;12.10;5.60;;;;;;;3.42;81.45;100769.86;99775;1290;137761;-68
2022/12/28 01:15:28;;;;;;;15.50;5.70;;;;;;;3.42;81.32;100770.21;99904;1290;99252;-68
2022/12/28 01:17:55;;;;;;;11.90;5.30;;;;;;;3.40;81.49;100770.69;100001;1284;137512;-67
2022/12/28 01:20:22;;;;;;;12.60;5.50;;;;;;;3.37;81.42;100771.20;100022;1288;96502;-68
2022/12/28 01:22:49;;;;;;;13.30;6.00;;;;;;;3.35;81.72;100766.72;100138;1291;109924;-68
2022/12/28 01:25:17;;;;;;;12.90;5.70;;;;;;;3.33;81.68;100769.30;100906;1285;137777;-68
2022/12/28 01:27:44;;;;;;;11.70;5.60;;;;;;;3.31;81.70;100767.91;100133;1281;96443;-68
2022/12/28 01:30:14;;;;;;;14.50;5.90;;;;;;;3.28;81.74;100765.48;99878;1287;138196;-69
2022/12/28 01:32:42;;;;;;;14.10;5.90;;;;;;;3.25;81.81;100761.35;101022;1290;94693;-68
2022/12/28 01:35:10;;;;;;;13.00;4.80;;;;;;;3.26;81.96;100758.60;100778;1284;111704;-69
2022/12/28 01:37:37;;;;;;;14.00;5.10;;;;;;;3.26;81.83;100757.91;100095;1291;138703;-69
2022/12/28 01:40:05;;;;;;;12.60;5.40;;;;;;;3.27;81.79;100759.64;100343;1284;96376;-68
2022/12/28 01:42:32;;;;;;;11.90;5.70;;;;;;;3.29;81.86;100758.96;100902;1284;138288;-68
2022/12/28 01:45:16;;;;;;;17.30;5.30;;;;;;;3.31;81.84;100756.05;100077;1293;96500;-69
2022/12/28 01:47:43;;;;;;;13.70;5.60;;;;;;;3.31;81.92;100754.85;100472;1292;137485;-68
2022/12/28 01:50:15;;;;;;;11.90;5.70;;;;;;;3.30;81.72;100753.30;100657;1293;107117;-68
2022/12/28 01:52:46;;;;;;;17.20;5.80;;;;;;;3.30;81.78;100752.09;100169;1292;96382;-67
2022/12/28 01:55:17;;;;;;;13.10;6.10;;;;;;;3.29;81.83;100756.05;100399;1289;137517;-68
2022/12/28 01:57:48;;;;;;;13.70;5.90;;;;;;;3.26;82.04;100757.05;99934;1289;96336;-68
2022/12/28 02:00:18;;;;;;;13.00;6.00;;;;;;;3.26;81.80;100762.90;100687;1289;138206;-68
2022/12/28 02:02:51;;;;;;;15.90;5.40;;;;;;;3.27;81.88;100760.84;100566;1286;107020;-69
2022/12/28 02:05:21;;;;;;;11.80;5.60;;;;;;;3.28;82.00;100758.27;100022;1285;96507;-68
2022/12/28 02:07:58;;;;;;;14.10;6.20;;;;;;;3.30;81.93;100757.77;99959;1292;139245;-68
2022/12/28 02:10:26;;;;;;;12.20;5.70;;;;;;;3.30;81.81;100760.52;100146;1287;96480;-68
2022/12/28 02:13:08;;;;;;;12.20;6.00;;;;;;;3.31;81.96;100758.80;100847;1283;137023;-68
2022/12/28 02:15:36;;;;;;;12.00;6.10;;;;;;;3.31;81.76;100754.50;100968;1291;107568;-68
2022/12/28 02:18:03;;;;;;;13.10;6.20;;;;;;;3.31;81.93;100752.27;100049;1291;137356;-69
2022/12/28 02:20:36;;;;;;;13.90;6.30;;;;;;;3.31;82.02;100750.55;100227;1292;107103;-69
2022/12/28 02:23:35;;;;;;;15.00;6.80;;;;;;;3.28;81.76;100745.55;100051;1290;97882;-68
2022/12/28 02:26:41;;;;;;;17.80;7.30;;;;;;;3.26;81.86;100743.14;100185;1289;112928;-69
2022/12/28 02:29:22;;;;;;;14.60;6.30;;;;;;;3.23;81.85;100736.05;100705;1284;108151;-69
2022/12/28 02:31:56;;;;;;;12.30;6.60;;;;;;;3.21;81.70;100732.95;100226;1285;137933;-69
2022/12/28 02:34:28;;;;;;;18.40;6.40;;;;;;;3.20;81.73;100727.61;100996;1291;108450;-69
2022/12/28 02:37:00;;;;;;;14.40;6.90;;;;;;;3.17;81.58;100729.67;99936;1290;139437;-69
2022/12/28 02:39:33;;;;;;;14.50;7.00;;;;;;;3.15;81.55;100735.50;100259;1286;111264;-69
2022/12/28 02:42:01;;;;;;;14.40;7.00;;;;;;;3.15;81.53;100737.56;99814;1286;138160;-68
2022/12/28 02:50:08;;;;;;;17.10;6.60;;;;;;;3.06;81.43;100734.59;99853;1290;137010;-68
2022/12/28 02:52:58;;;;;;;17.90;7.50;;;;;;;3.00;81.35;100729.73;101104;1291;109950;-69
2022/12/28 02:58:53;;;;;;;16.40;7.00;;;;;;;2.81;81.26;100726.17;99728;1291;96946;-69
2022/12/28 03:01:41;;;;;;;16.00;7.20;;;;;;;2.66;81.18;100728.82;99868;1294;137281;-68
2022/12/28 03:04:18;;;;;;;15.60;7.20;;;;;;;2.55;81.62;100726.34;100713;1298;96470;-69
2022/12/28 03:09:44;;;;;;;14.00;6.80;;;;;;;2.43;81.84;100732.06;100460;1295;108156;-69
2022/12/28 03:12:18;;;;;;;12.20;6.40;;;;;;;2.38;81.84;100732.38;100355;1288;138532;-66
2022/12/28 03:14:52;;;;;;;12.70;6.90;;;;;;;2.35;81.90;100735.44;99851;1296;107046;-68
2022/12/28 03:31:27;;;;;;;13.30;7.80;;;;;;;2.15;82.38;100729.75;100517;1281;137515;-69
2022/12/28 03:34:05;;;;;;;17.10;8.30;;;;;;;2.10;82.74;100733.64;99921;1283;110464;-67
2022/12/28 03:36:53;;;;;;;20.70;8.20;;;;;;;2.07;82.78;100727.95;99876;1291;138662;-67
2022/12/28 03:39:30;;;;;;;13.10;7.80;;;;;;;2.07;82.99;100727.61;99999;1284;96950;-68
2022/12/28 03:45:00;;;;;;;19.90;8.60;;;;;;;2.03;82.89;100715.23;101225;1287;94748;-69
2022/12/28 03:47:29;;;;;;;13.00;7.30;;;;;;;2.00;83.00;100718.64;99998;1283;109629;-68
2022/12/28 03:49:58;;;;;;;17.50;8.20;;;;;;;1.98;82.96;100713.30;100138;1286;137673;-68
2022/12/28 03:52:25;;;;;;;15.10;8.00;;;;;;;1.96;82.97;100708.45;100269;1290;97071;-67
2022/12/28 03:54:52;;;;;;;14.50;8.20;;;;;;;1.92;83.03;100702.23;99807;1290;137883;-69
2022/12/28 03:57:22;;;;;;;15.40;7.80;;;;;;;1.89;83.18;100694.49;100247;1290;96356;-69
2022/12/28 03:59:49;;;;;;;14.10;7.80;;;;;;;1.87;83.29;100684.02;100101;1293;138586;-68
2022/12/28 04:02:17;;;;;;;15.60;7.50;;;;;;;1.84;83.28;100670.63;100251;1283;107411;-68
2022/12/28 04:04:46;;;;;;;18.80;8.20;;;;;;;1.83;83.29;100669.23;100548;1291;96391;-69
2022/12/28 04:07:13;;;;;;;16.90;8.80;;;;;;;1.80;83.33;100666.30;100237;1290;138827;-69
2022/12/28 04:09:40;;;;;;;19.00;8.90;;;;;;;1.79;83.35;100670.38;100128;1286;97106;-68
2022/12/28 04:12:08;;;;;;;15.70;9.20;;;;;;;1.75;83.37;100667.78;99991;1291;140439;-68
2022/12/28 04:14:58;;;;;;;15.30;8.50;;;;;;;1.71;83.48;100667.23;100135;1290;109592;-68
2022/12/28 04:17:25;;;;;;;19.20;8.30;;;;;;;1.67;83.49;100663.92;100053;1286;96466;-68
2022/12/28 04:19:52;;;;;;;13.10;7.60;;;;;;;1.65;83.76;100666.14;99894;1286;138271;-69
2022/12/28 04:22:19;;;;;;;13.40;8.40;;;;;;;1.61;83.66;100672.60;100111;1291;98136;-68
2022/12/28 04:24:46;;;;;;;14.40;8.40;;;;;;;1.55;83.81;100672.70;99990;1286;137816;-68
2022/12/28 04:27:14;;;;;;;14.00;8.40;;;;;;;1.49;83.88;100669.21;100027;1290;105788;-68
2022/12/28 04:29:42;;;;;;;17.70;8.50;;;;;;;1.45;84.05;100663.16;100103;1290;96498;-69
2022/12/28 04:32:16;;;;;;;15.20;7.70;;;;;;;1.41;84.01;100664.82;100181;1298;105764;-69
2022/12/28 04:34:44;;;;;;;17.20;8.00;;;;;;;1.36;84.15;100669.40;99869;1283;96477;-69
2022/12/28 04:37:16;;;;;;;15.20;7.70;;;;;;;1.34;84.26;100665.27;99677;1287;137772;-69
2022/12/28 04:39:43;;;;;;;16.40;8.00;;;;;;;1.33;84.58;100667.48;99750;1292;106933;-68
2022/12/28 04:42:23;;;;;;;14.90;8.10;;;;;;;1.30;84.43;100671.22;99686;1285;138186;-67
2022/12/28 04:44:50;;;;;;;16.80;8.50;;;;;;;1.28;84.44;100670.84;100562;1289;106210;-68
2022/12/28 04:47:17;;;;;;;19.00;8.30;;;;;;;1.26;84.55;100676.97;100786;1283;96475;-68
2022/12/28 04:49:45;;;;;;;17.20;8.40;;;;;;;1.25;84.63;100679.36;100016;1290;138017;-67
2022/12/28 04:52:12;;;;;;;18.20;8.20;;;;;;;1.26;84.76;100675.63;100293;1289;105483;-67
2022/12/28 04:54:39;;;;;;;17.60;8.50;;;;;;;1.26;84.77;100673.73;100446;1291;137606;-68
2022/12/28 04:57:06;;;;;;;17.50;9.30;;;;;;;1.24;84.61;100670.44;100011;1289;107644;-67
2022/12/28 04:59:33;;;;;;;17.10;8.90;;;;;;;1.21;84.60;100670.75;99399;1282;1003840;-68
2022/12/28 05:02:00;;;;;;;15.80;9.20;;;;;;;1.20;84.76;100673.65;99762;1291;275900;-68
2022/12/28 05:04:28;;;;;;;19.80;9.60;;;;;;;1.16;84.75;100674.48;99957;1290;108017;-68
2022/12/28 05:06:55;;;;;;;18.90;9.50;;;;;;;1.11;84.73;100668.59;100262;1283;138192;-68
2022/12/28 05:09:22;;;;;;;17.10;9.20;;;;;;;1.08;84.74;100668.03;99952;1287;108128;-69
2022/12/28 05:11:50;;;;;;;16.20;8.70;;;;;;;1.04;84.96;100665.40;99924;1291;138257;-69
2022/12/28 05:14:17;;;;;;;17.30;9.20;;;;;;;1.03;85.17;100662.48;99886;1289;109792;-69
2022/12/28 05:16:44;;;;;;;16.10;8.90;;;;;;;1.01;85.05;100660.40;99905;1286;108246;-69
2022/12/28 05:19:11;;;;;;;16.70;9.00;;;;;;;0.99;85.11;100661.23;99817;1286;138472;-69
2022/12/28 05:21:39;;;;;;;18.50;9.00;;;;;;;0.96;85.23;100659.81;99940;1285;106933;-69
2022/12/28 05:24:07;;;;;;;17.50;9.20;;;;;;;0.94;85.13;100658.77;99814;1290;137100;-69
2022/12/28 05:26:34;;;;;;;20.60;9.60;;;;;;;0.89;85.29;100656.13;99984;1283;108885;-69
2022/12/28 05:29:02;;;;;;;16.80;9.70;;;;;;;0.86;85.35;100660.52;99888;1283;106939;-69
2022/12/28 05:31:29;;;;;;;21.30;10.10;;;;;;;0.81;85.32;100669.20;99793;1290;137926;-69
2022/12/28 05:33:57;;;;;;;22.10;10.50;;;;;;;0.74;85.33;100667.90;99977;1285;107508;-69
2022/12/28 05:36:25;;;;;;;19.10;9.60;;;;;;;0.67;85.29;100665.22;99708;1290;138058;-70
2022/12/28 05:38:54;;;;;;;23.80;10.40;;;;;;;0.60;85.51;100662.23;99985;1289;109590;-68
2022/12/28 05:41:23;;;;;;;19.80;10.70;;;;;;;0.56;85.63;100657.89;99887;1289;107176;-68
2022/12/28 05:43:51;;;;;;;18.50;10.60;;;;;;;0.51;85.87;100655.58;99859;1284;138521;-68
2022/12/28 05:46:22;;;;;;;18.60;9.80;;;;;;;0.47;85.94;100657.91;99857;1284;106891;-68
2022/12/28 05:48:50;;;;;;;17.90;9.70;;;;;;;0.40;86.04;100655.42;99947;1299;138614;-68
2022/12/28 05:51:20;;;;;;;22.10;11.30;;;;;;;0.37;86.27;100648.54;100005;1292;109517;-69
2022/12/28 05:53:47;;;;;;;19.00;10.00;;;;;;;0.34;86.42;100645.20;99935;1293;138237;-68
2022/12/28 05:56:17;;;;;;;19.20;10.50;;;;;;;0.31;86.58;100638.50;100522;1291;98084;-69
2022/12/28 05:58:46;;;;;;;18.20;10.40;;;;;;;0.28;86.73;100628.20;100348;1287;108048;-69
2022/12/28 06:01:15;;;;;;;19.10;10.30;;;;;;;0.26;86.90;100637.41;100039;1289;138711;-68
2022/12/28 06:03:44;;;;;;;17.80;10.20;;;;;;;0.22;86.94;100635.30;99987;1283;110397;-69
2022/12/28 06:06:14;;;;;;;22.20;10.80;;;;;;;0.20;87.09;100644.00;99734;1290;138229;-69
2022/12/28 06:08:42;;;;;;;27.30;11.30;;;;;;;0.19;87.21;100647.75;100043;1285;96977;-69
2022/12/28 06:11:11;;;;;;;19.40;10.50;;;;;;;0.18;87.40;100640.35;99864;1291;108891;-68
2022/12/28 06:13:39;;;;;;;18.70;10.90;;;;;;;0.17;87.41;100636.90;99781;1299;137885;-69
2022/12/28 06:16:12;;;;;;;20.80;10.80;;;;;;;0.16;87.30;100634.48;99954;1290;108861;-69
2022/12/28 06:18:39;;;;;;;21.50;11.40;;;;;;;0.12;87.46;100633.59;99158;1290;1003533;-69
2022/12/28 06:21:08;;;;;;;18.10;10.10;;;;;;;0.11;87.44;100639.73;99942;1290;96386;-69
2022/12/28 06:23:36;;;;;;;22.30;11.20;;;;;;;0.10;87.48;100641.23;99892;1290;107253;-68
2022/12/28 06:26:07;;;;;;;21.30;10.80;;;;;;;0.06;87.70;100641.69;99821;1292;137717;-67
2022/12/28 06:28:36;;;;;;;20.30;11.10;;;;;;;0.04;87.77;100636.88;100025;1283;111391;-69
2022/12/28 06:31:08;;;;;;;19.00;11.10;;;;;;;0.02;88.02;100630.86;99900;1289;138175;-67
2022/12/28 06:33:36;;;;;;;20.20;12.30;;;;;;;0.00;87.99;100634.59;100328;1291;96583;-67
2022/12/28 06:36:03;;;;;;;20.50;11.60;;;;;;;-0.02;87.99;100634.55;99989;1292;138754;-67
2022/12/28 06:38:33;;;;;;;18.80;10.90;;;;;;;-0.03;88.16;100629.73;100003;1291;96441;-68
2022/12/28 06:41:05;;;;;;;18.80;11.10;;;;;;;-0.04;88.13;100631.27;100136;1291;110129;-67
2022/12/28 06:43:42;;;;;;;19.30;11.20;;;;;;;-0.06;88.05;100633.63;100312;1282;138603;-67
2022/12/28 06:46:10;;;;;;;23.90;11.40;;;;;;;-0.06;88.19;100627.64;99996;1298;96510;-67
2022/12/28 06:48:37;;;;;;;20.70;11.80;;;;;;;-0.06;88.34;100624.23;99977;1299;137891;-67
2022/12/28 06:51:07;;;;;;;19.90;11.40;;;;;;;-0.06;88.35;100620.48;100054;1292;96356;-67
2022/12/28 06:53:37;;;;;;;22.10;11.10;;;;;;;-0.06;88.29;100624.40;100206;1289;109010;-67
2022/12/28 06:56:07;;;;;;;20.40;11.60;;;;;;;-0.07;88.28;100623.53;99900;1290;138153;-68
2022/12/28 06:58:34;;;;;;;22.30;11.50;;;;;;;-0.08;88.35;100622.33;100377;1291;96523;-68
2022/12/28 07:01:08;;;;;;;19.30;11.70;;;;;;;-0.07;88.48;100619.59;99974;1294;138227;-69
2022/12/28 07:03:35;;;;;;;21.40;11.50;;;;;;;-0.07;88.37;100615.14;100099;1290;96586;-67
2022/12/28 07:06:04;;;;;;;22.20;12.60;;;;;;;-0.07;88.53;100616.17;100040;1292;139424;-69
2022/12/28 07:08:31;;;;;;;20.50;12.10;;;;;;;-0.07;88.43;100613.27;99922;1289;108465;-68
2022/12/28 07:11:03;;;;;;;20.60;11.90;;;;;;;-0.04;88.56;100615.03;100027;1292;96388;-66
2022/12/28 07:13:31;;;;;;;23.10;12.00;;;;;;;0.00;88.55;100609.81;100142;1283;138189;-67
2022/12/28 07:16:01;;;;;;;23.20;12.40;;;;;;;0.02;88.49;100607.98;100116;1290;96522;-68
2022/12/28 07:18:29;;;;;;;24.70;13.00;;;;;;;0.05;88.52;100599.79;99974;1293;137952;-68
2022/12/28 07:21:02;;;;;;;25.00;14.20;;;;;;;0.07;88.42;100598.13;100019;1290;109388;-67
2022/12/28 07:23:30;;;;;;;23.00;12.60;;;;;;;0.10;88.27;100598.16;100560;1292;96503;-67
2022/12/28 07:25:57;;;;;;;23.20;13.60;;;;;;;0.19;88.50;100595.73;99952;1289;137835;-68
2022/12/28 07:28:25;;;;;;;20.80;12.70;;;;;;;0.33;88.44;100592.18;99941;1283;96480;-67
2022/12/28 07:30:52;;;;;;;22.80;13.00;;;;;;;0.48;88.26;100584.20;99821;1292;137709;-68
2022/12/28 07:33:19;;;;;;;23.20;13.40;;;;;;;0.65;87.87;100586.48;100021;1288;108154;-68
2022/12/28 07:35:46;;;;;;;22.90;12.70;;;;;;;0.83;87.69;100580.38;100107;1292;96378;-70
2022/12/28 07:38:13;;;;;;;20.90;12.10;;;;;;;1.02;87.44;100575.65;100009;1283;107592;-69
2022/12/28 07:40:47;;;;;;;23.60;12.80;;;;;;;1.19;87.30;100576.35;100009;1283;96413;-68
2022/12/28 07:43:14;;;;;;;22.70;12.20;;;;;;;1.37;87.05;100579.47;99788;1289;138072;-68
2022/12/28 07:45:41;;;;;;;23.10;12.10;;;;;;;1.46;86.09;100583.00;99815;1282;107736;-68
2022/12/28 07:48:09;;;;;;;21.10;12.30;;;;;;;1.49;85.85;100581.83;99823;1292;138023;-68
2022/12/28 07:50:36;;;;;;;17.90;11.00;;;;;;;1.55;85.39;100582.55;99899;1289;107641;-68
2022/12/28 07:53:04;;;;;;;19.50;11.40;;;;;;;1.59;85.29;100580.54;99860;1293;96507;-69
2022/12/28 07:55:31;;;;;;;23.30;12.10;;;;;;;1.65;84.93;100578.03;99875;1298;138547;-68
2022/12/28 07:57:58;;;;;;;20.10;11.10;;;;;;;1.66;84.54;100581.82;99813;1289;107855;-69
2022/12/28 08:00:25;;;;;;;19.10;10.90;;;;;;;1.65;84.61;100577.52;99795;1289;138291;-69
2022/12/28 08:02:54;;;;;;;20.50;11.20;;;;;;;1.63;84.35;100584.54;99929;1285;107066;-69
2022/12/28 08:05:21;;;;;;;18.40;9.70;;;;;;;1.65;84.56;100584.38;99882;1286;96698;-69
2022/12/28 08:07:48;;;;;;;19.60;11.00;;;;;;;1.73;84.47;100585.64;99853;1290;137884;-69
2022/12/28 08:10:16;;;;;;;22.80;11.30;;;;;;;1.83;84.58;100581.11;99961;1292;107859;-69
2022/12/28 08:12:43;;;;;;;16.70;11.00;;;;;;;1.93;84.21;100576.73;99871;1290;137918;-69
2022/12/28 08:15:11;;;;;;;18.70;11.30;;;;;;;1.95;83.73;100574.67;99982;1284;107604;-69
2022/12/28 08:17:38;;;;;;;17.70;10.80;;;;;;;1.95;83.51;100566.96;100025;1296;96511;-69
2022/12/28 08:20:06;;;;;;;17.90;10.00;;;;;;;1.93;83.39;100565.58;99807;1289;137937;-69
2022/12/28 08:22:33;;;;;;;17.00;11.60;;;;;;;1.95;83.22;100566.63;99964;1295;106104;-69
2022/12/28 08:25:00;;;;;;;17.00;10.20;;;;;;;2.00;83.35;100565.65;99836;1287;138228;-69
2022/12/28 08:27:27;;;;;;;16.50;9.10;;;;;;;2.03;83.15;100560.18;99958;1297;107580;-69
2022/12/28 08:30:02;;;;;;;18.10;11.10;;;;;;;2.09;83.24;100562.95;99862;1290;137880;-69
2022/12/28 08:32:29;;;;;;;16.30;9.90;;;;;;;2.18;83.06;100567.50;99897;1294;109433;-69
2022/12/28 08:34:56;;;;;;;16.90;9.90;;;;;;;2.28;82.67;100563.95;99807;1283;107538;-68
2022/12/28 08:37:23;;;;;;;13.50;9.40;;;;;;;2.38;82.80;100561.96;99765;1286;138332;-70
2022/12/28 08:39:51;;;;;;;16.80;9.20;;;;;;;2.44;82.34;100564.05;99825;1292;107326;-70
2022/12/28 08:42:18;;;;;;;20.80;10.30;;;;;;;2.41;82.06;100564.38;99628;1290;137825;-68
2022/12/28 08:44:45;;;;;;;18.00;10.50;;;;;;;2.40;82.41;100569.18;99657;1281;109950;-70
2022/12/28 08:47:12;;;;;;;15.40;10.00;;;;;;;2.33;81.94;100564.67;99690;1290;106562;-70
2022/12/28 08:49:39;;;;;;;16.40;9.30;;;;;;;2.25;81.92;100564.45;99848;1291;139314;-70
2022/12/28 08:52:06;;;;;;;16.50;9.90;;;;;;;2.18;81.99;100564.58;99900;1292;106909;-69
2022/12/28 08:54:33;;;;;;;23.10;11.90;;;;;;;2.18;82.66;100564.92;99750;1283;137760;-70
2022/12/28 08:57:00;;;;;;;16.80;9.20;;;;;;;2.36;83.47;100559.89;99767;1290;109424;-70
2022/12/28 08:59:27;;;;;;;18.70;10.30;;;;;;;2.46;82.44;100555.13;99825;1288;108171;-69
2022/12/28 09:01:54;;;;;;;17.80;10.30;;;;;;;2.59;82.39;100541.48;99644;1284;139038;-70
2022/12/28 09:04:23;;;;;;;18.50;10.70;;;;;;;2.77;82.23;100545.68;99793;1287;107266;-69
2022/12/28 09:06:50;;;;;;;15.40;9.80;;;;;;;2.92;81.95;100556.05;100477;1294;139242;-69
2022/12/28 09:09:19;;;;;;;16.70;10.20;;;;;;;3.07;81.61;100554.04;101331;1291;109617;-70
2022/12/28 09:11:47;;;;;;;16.10;9.90;;;;;;;3.18;81.09;100555.27;101342;1289;107976;-70
2022/12/28 09:14:16;;;;;;;18.90;9.70;;;;;;;3.23;80.69;100556.48;100578;1283;95129;-69
2022/12/28 09:16:50;;;;;;;16.20;10.10;;;;;;;3.25;80.68;100552.04;99687;1291;1002957;-70
2022/12/28 09:19:17;;;;;;;15.00;9.40;;;;;;;3.28;79.99;100552.39;99779;1283;138293;-69
2022/12/28 09:21:47;;;;;;;19.50;9.70;;;;;;;3.30;80.53;100554.45;100036;1290;109434;-69
2022/12/28 09:24:15;;;;;;;17.20;10.00;;;;;;;3.37;80.26;100547.23;99640;1299;138456;-70
2022/12/28 09:26:42;;;;;;;16.50;10.30;;;;;;;3.46;80.30;100544.00;99806;1290;97078;-70
2022/12/28 09:29:11;;;;;;;18.70;10.10;;;;;;;3.52;80.34;100540.39;100211;1285;107598;-70
2022/12/28 09:31:40;;;;;;;15.90;9.90;;;;;;;3.58;80.23;100543.48;100921;1293;138140;-71
2022/12/28 09:34:11;;;;;;;16.80;9.60;;;;;;;3.62;80.02;100539.02;101418;1284;111096;-70
2022/12/28 09:36:59;;;;;;;15.30;9.40;;;;;;;3.72;80.05;100533.69;99755;1290;137916;-69
2022/12/28 09:39:26;;;;;;;15.20;9.10;;;;;;;3.79;79.90;100520.47;99954;1290;96957;-69
2022/12/28 09:41:57;;;;;;;18.50;8.60;;;;;;;3.86;79.67;100513.56;99864;1290;137647;-69
2022/12/28 09:44:38;;;;;;;16.90;8.40;;;;;;;3.95;79.72;100504.11;100287;1292;96489;-70
2022/12/28 09:47:16;;;;;;;17.10;8.90;;;;;;;4.06;79.21;100504.61;99917;1297;109625;-70
2022/12/28 09:49:51;;;;;;;12.80;7.60;;;;;;;4.11;78.74;100499.59;100665;1290;138143;-69
2022/12/28 09:52:35;;;;;;;17.50;8.70;;;;;;;4.19;78.99;100495.12;99928;1283;96616;-69
2022/12/28 09:55:11;;;;;;;14.40;8.00;;;;;;;4.31;78.50;100489.92;100351;1290;137563;-70
2022/12/28 09:57:42;;;;;;;15.90;6.70;;;;;;;4.37;77.91;100483.71;99895;1291;96483;-70
2022/12/28 10:00:18;;;;;;;13.70;7.00;;;;;;;4.42;77.56;100479.38;100269;1296;137628;-69
2022/12/28 10:02:49;;;;;;;14.20;7.00;;;;;;;4.48;77.17;100467.14;99977;1297;107484;-72
2022/12/28 10:05:17;;;;;;;17.40;7.60;;;;;;;4.56;77.22;100462.29;100071;1298;96494;-70
2022/12/28 10:07:44;;;;;;;15.10;7.50;;;;;;;4.63;76.82;100458.80;99839;1291;137903;-70
2022/12/28 10:10:17;;;;;;;17.70;7.60;;;;;;;4.66;76.41;100451.89;99928;1291;96561;-71
2022/12/28 10:12:45;;;;;;;16.30;8.30;;;;;;;4.67;76.27;100454.83;100199;1292;137655;-70
2022/12/28 10:15:16;;;;;;;13.30;6.80;;;;;;;4.70;75.93;100455.17;100244;1290;107527;-69
2022/12/28 10:17:44;;;;;;;11.70;6.50;;;;;;;4.73;75.51;100447.75;100053;1283;96998;-69
2022/12/28 10:20:18;;;;;;;13.20;7.20;;;;;;;4.73;75.08;100447.40;100526;1296;107545;-69
2022/12/28 10:22:49;;;;;;;;;;;;;;;4.76;75.08;100443.25;100782;1298;96510;-70
2022/12/28 10:25:19;;;;;;;13.60;6.80;;;;;;;4.76;74.63;100442.04;99798;1297;123324;-70
2022/12/28 10:27:46;;;;;;;11.50;6.20;;;;;;;4.78;74.68;100446.50;99987;1291;107074;-69
2022/12/28 10:30:22;;;;;;;14.40;7.10;;;;;;;4.79;74.47;100442.70;100046;1292;139283;-69
2022/12/28 10:32:55;;;;;;;14.00;7.30;;;;;;;4.79;74.32;100437.19;99737;1290;107467;-70
2022/12/28 10:35:34;;;;;;;13.40;6.70;;;;;;;4.78;73.98;100431.35;100037;1299;96334;-69
2022/12/28 10:38:06;;;;;;;15.00;7.20;;;;;;;4.76;73.96;100422.91;101338;1290;136946;-70
2022/12/28 10:40:36;;;;;;;16.80;7.60;;;;;;;4.79;73.90;100419.27;101368;1298;107090;-70
2022/12/28 10:43:04;;;;;;;13.90;6.80;;;;;;;4.79;73.92;100422.20;101276;1283;138196;-70
2022/12/28 10:45:40;;;;;;;18.80;6.50;;;;;;;4.76;73.64;100412.92;101326;1290;106371;-71
2022/12/28 10:48:15;;;;;;;15.00;6.90;;;;;;;4.72;73.34;100422.61;101310;1297;137524;-70
2022/12/28 10:50:49;;;;;;;14.70;7.10;;;;;;;4.67;72.75;100418.83;100549;1298;110768;-70
2022/12/28 10:53:28;;;;;;;11.60;7.10;;;;;;;4.60;72.61;100412.50;99897;1300;107787;-70
2022/12/28 10:56:05;;;;;;;14.70;6.60;;;;;;;4.52;73.03;100408.23;99854;1300;138406;-69
2022/12/28 10:58:33;;;;;;;13.90;6.60;;;;;;;4.48;73.02;100402.91;100060;1292;106677;-69
2022/12/28 11:01:03;;;;;;;11.50;5.90;;;;;;;4.45;72.92;100394.31;99763;1293;137679;-71
2022/12/28 11:03:34;;;;;;;17.90;5.80;;;;;;;4.43;73.21;100387.95;99917;1293;110951;-69
2022/12/28 11:06:16;;;;;;;11.60;5.60;;;;;;;4.40;72.27;100380.23;99787;1283;137262;-69
2022/12/28 11:09:16;;;;;;;12.80;6.40;;;;;;;4.36;72.78;100373.89;99924;1290;97112;-69
2022/12/28 11:11:44;;;;;;;13.30;6.10;;;;;;;4.34;73.11;100370.98;99924;1290;107147;-70
2022/12/28 11:14:18;;;;;;;13.80;5.90;;;;;;;4.33;73.33;100365.98;99932;1286;96515;-69
2022/12/28 11:16:45;;;;;;;12.30;5.90;;;;;;;4.32;73.31;100361.85;100005;1292;109666;-70
2022/12/28 11:19:13;;;;;;;13.70;5.80;;;;;;;4.30;73.10;100354.44;99837;1293;137204;-69
2022/12/28 11:21:41;;;;;;;13.20;6.40;;;;;;;4.27;73.10;100351.02;99984;1296;96475;-70
2022/12/28 11:24:15;;;;;;;15.80;6.80;;;;;;;4.24;72.36;100353.96;99136;1292;1002759;-71
2022/12/28 11:26:44;;;;;;;11.90;6.10;;;;;;;4.19;72.88;100347.29;100140;1298;96364;-69
2022/12/28 11:29:15;;;;;;;14.70;7.00;;;;;;;4.13;72.98;100345.42;99931;1290;109518;-70
2022/12/28 11:31:49;;;;;;;12.20;6.70;;;;;;;4.09;73.23;100338.54;99768;1291;137755;-70
2022/12/28 11:34:20;;;;;;;13.90;6.10;;;;;;;4.08;73.58;100346.64;99912;1285;96374;-70
2022/12/28 11:36:49;;;;;;;11.90;6.00;;;;;;;4.08;73.48;100349.57;99760;1289;137494;-69
2022/12/28 11:39:49;;;;;;;12.40;5.70;;;;;;;4.09;73.79;100349.04;99853;1289;96596;-70
2022/12/28 11:42:55;;;;;;;13.40;6.20;;;;;;;4.11;73.49;100335.09;99586;1298;137980;-71
2022/12/28 11:45:52;;;;;;;14.80;5.70;;;;;;;4.13;73.13;100335.77;99715;1293;106914;-70
2022/12/28 11:48:48;;;;;;;12.50;7.30;;;;;;;4.15;73.41;100326.66;99709;1300;138012;-69
2022/12/28 11:51:19;;;;;;;14.00;7.70;;;;;;;4.19;72.99;100326.80;99746;1290;107408;-71
2022/12/28 11:53:58;;;;;;;15.00;7.30;;;;;;;4.22;72.92;100325.07;99842;1300;96514;-71
2022/12/28 11:56:48;;;;;;;13.00;7.50;;;;;;;4.22;72.91;100321.45;99769;1289;110306;-70